sensor_id;sensor_type;location;lat;lon;timestamp;temperature;humidity
23669;DHT22;12011;47.422;15.018;2023-04-01T00:00:20;4.90;99.90
23669;DHT22;12011;47.422;15.018;2023-04-01T00:02:53;4.80;99.90
23669;DHT22;12011;47.422;15.018;2023-04-01T00:05:29;4.80;99.90
23669;DHT22;12011;47.422;15.018;2023-04-01T00:08:07;4.80;99.90
23669;DHT22;12011;47.422;15.018;2023-04-01T00:10:46;4.80;99.90
23669;DHT22;12011;47.422;15.018;2023-04-01T00:13:26;4.80;99.90
23669;DHT22;12011;47.422;15.018;2023-04-01T00:16:01;4.00;99.90
23669;DHT22;12011;47.422;15.018;2023-04-01T00:18:32;4.80;99.90
23669;DHT22;12011;47.422;15.018;2023-04-01T00:21:18;4.70;99.90
23669;DHT22;12011;47.422;15.018;2023-04-01T00:23:54;4.70;99.90
23669;DHT22;12011;47.422;15.018;2023-04-01T00:26:30;4.60;99.90
23669;DHT22;12011;47.422;15.018;2023-04-01T00:29:01;4.50;99.90
23669;DHT22;12011;47.422;15.018;2023-04-01T00:31:36;4.40;99.90
23669;DHT22;12011;47.422;15.018;2023-04-01T00:34:10;4.40;99.90
23669;DHT22;12011;47.422;15.018;2023-04-01T00:36:50;4.40;99.90
23669;DHT22;12011;47.422;15.018;2023-04-01T00:39:28;4.20;99.90
23669;DHT22;12011;47.422;15.018;2023-04-01T00:42:12;4.00;99.90
23669;DHT22;12011;47.422;15.018;2023-04-01T00:44:54;3.90;99.90
23669;DHT22;12011;47.422;15.018;2023-04-01T00:47:31;3.90;99.90
23669;DHT22;12011;47.422;15.018;2023-04-01T00:50:01;4.00;99.90
23669;DHT22;12011;47.422;15.018;2023-04-01T00:52:33;4.10;99.90
23669;DHT22;12011;47.422;15.018;2023-04-01T00:55:12;4.10;99.90
23669;DHT22;12011;47.422;15.018;2023-04-01T00:57:51;4.30;99.90
23669;DHT22;12011;47.422;15.018;2023-04-01T01:00:26;4.30;99.90
23669;DHT22;12011;47.422;15.018;2023-04-01T01:02:56;4.30;99.90
23669;DHT22;12011;47.422;15.018;2023-04-01T01:05:46;4.40;99.90
23669;DHT22;12011;47.422;15.018;2023-04-01T01:08:44;4.30;99.90
23669;DHT22;12011;47.422;15.018;2023-04-01T01:11:46;4.30;99.90
23669;DHT22;12011;47.422;15.018;2023-04-01T01:14:45;4.30;99.90
23669;DHT22;12011;47.422;15.018;2023-04-01T01:17:32;4.40;99.90
23669;DHT22;12011;47.422;15.018;2023-04-01T01:20:54;4.40;99.90
23669;DHT22;12011;47.422;15.018;2023-04-01T01:23:52;4.40;99.90
23669;DHT22;12011;47.422;15.018;2023-04-01T01:26:54;4.50;99.90
23669;DHT22;12011;47.422;15.018;2023-04-01T01:29:47;4.40;99.90
23669;DHT22;12011;47.422;15.018;2023-04-01T01:35:56;4.40;99.90
23669;DHT22;12011;47.422;15.018;2023-04-01T01:38:33;4.40;99.90
23669;DHT22;12011;47.422;15.018;2023-04-01T01:41:16;4.30;99.90
23669;DHT22;12011;47.422;15.018;2023-04-01T01:43:58;4.30;99.90
23669;DHT22;12011;47.422;15.018;2023-04-01T01:46:37;4.30;99.90
23669;DHT22;12011;47.422;15.018;2023-04-01T01:49:18;4.20;99.90
23669;DHT22;12011;47.422;15.018;2023-04-01T01:52:14;4.10;99.90
23669;DHT22;12011;47.422;15.018;2023-04-01T01:54:49;4.00;99.90
23669;DHT22;12011;47.422;15.018;2023-04-01T01:57:28;4.10;99.90
23669;DHT22;12011;47.422;15.018;2023-04-01T02:00:12;4.10;99.90
23669;DHT22;12011;47.422;15.018;2023-04-01T02:02:48;4.10;99.90
23669;DHT22;12011;47.422;15.018;2023-04-01T02:05:26;4.10;99.90
23669;DHT22;12011;47.422;15.018;2023-04-01T02:08:25;4.10;99.90
23669;DHT22;12011;47.422;15.018;2023-04-01T02:11:06;4.10;99.90
23669;DHT22;12011;47.422;15.018;2023-04-01T02:13:54;4.10;99.90
23669;DHT22;12011;47.422;15.018;2023-04-01T02:16:33;4.10;99.90
23669;DHT22;12011;47.422;15.018;2023-04-01T02:19:30;4.10;99.90
23669;DHT22;12011;47.422;15.018;2023-04-01T02:22:06;4.10;99.90
23669;DHT22;12011;47.422;15.018;2023-04-01T02:24:47;4.10;99.90
23669;DHT22;12011;47.422;15.018;2023-04-01T02:27:30;4.10;99.90
23669;DHT22;12011;47.422;15.018;2023-04-01T02:30:19;4.20;99.90
23669;DHT22;12011;47.422;15.018;2023-04-01T02:33:04;4.20;99.90
23669;DHT22;12011;47.422;15.018;2023-04-01T02:35:38;4.20;99.90
23669;DHT22;12011;47.422;15.018;2023-04-01T02:38:10;4.10;99.90
23669;DHT22;12011;47.422;15.018;2023-04-01T02:40:48;4.20;99.90
23669;DHT22;12011;47.422;15.018;2023-04-01T02:43:21;4.20;99.90
23669;DHT22;12011;47.422;15.018;2023-04-01T02:45:57;4.30;99.90
23669;DHT22;12011;47.422;15.018;2023-04-01T02:48:32;4.30;99.90
23669;DHT22;12011;47.422;15.018;2023-04-01T02:51:03;3.30;99.90
23669;DHT22;12011;47.422;15.018;2023-04-01T02:53:43;4.40;99.90
23669;DHT22;12011;47.422;15.018;2023-04-01T02:56:19;4.40;99.90
23669;DHT22;12011;47.422;15.018;2023-04-01T02:58:53;4.30;99.90
23669;DHT22;12011;47.422;15.018;2023-04-01T03:01:49;4.40;99.90
23669;DHT22;12011;47.422;15.018;2023-04-01T03:04:21;4.40;99.90
23669;DHT22;12011;47.422;15.018;2023-04-01T03:06:52;4.40;99.90
23669;DHT22;12011;47.422;15.018;2023-04-01T03:09:28;4.50;99.90
23669;DHT22;12011;47.422;15.018;2023-04-01T03:12:03;4.60;99.90
23669;DHT22;12011;47.422;15.018;2023-04-01T03:14:46;4.70;99.90
23669;DHT22;12011;47.422;15.018;2023-04-01T03:17:18;4.60;99.90
23669;DHT22;12011;47.422;15.018;2023-04-01T03:19:52;4.60;99.90
23669;DHT22;12011;47.422;15.018;2023-04-01T03:22:26;4.60;99.90
23669;DHT22;12011;47.422;15.018;2023-04-01T03:25:00;4.50;99.90
23669;DHT22;12011;47.422;15.018;2023-04-01T03:27:41;4.50;99.90
23669;DHT22;12011;47.422;15.018;2023-04-01T03:30:22;4.50;99.90
23669;DHT22;12011;47.422;15.018;2023-04-01T03:32:58;4.50;99.90
23669;DHT22;12011;47.422;15.018;2023-04-01T03:35:32;4.40;99.90
23669;DHT22;12011;47.422;15.018;2023-04-01T03:38:06;4.50;99.90
23669;DHT22;12011;47.422;15.018;2023-04-01T03:40:47;4.50;99.90
23669;DHT22;12011;47.422;15.018;2023-04-01T03:43:22;4.50;99.90
23669;DHT22;12011;47.422;15.018;2023-04-01T03:45:52;4.50;99.90
23669;DHT22;12011;47.422;15.018;2023-04-01T03:48:29;4.50;99.90
23669;DHT22;12011;47.422;15.018;2023-04-01T03:51:08;4.50;99.90
23669;DHT22;12011;47.422;15.018;2023-04-01T03:53:40;4.50;99.90
23669;DHT22;12011;47.422;15.018;2023-04-01T03:56:10;4.40;99.90
23669;DHT22;12011;47.422;15.018;2023-04-01T03:58:56;4.00;99.90
23669;DHT22;12011;47.422;15.018;2023-04-01T04:01:33;4.30;99.90
23669;DHT22;12011;47.422;15.018;2023-04-01T04:04:11;4.40;99.90
23669;DHT22;12011;47.422;15.018;2023-04-01T04:06:42;4.40;99.90
23669;DHT22;12011;47.422;15.018;2023-04-01T04:09:15;4.50;99.90
23669;DHT22;12011;47.422;15.018;2023-04-01T04:11:45;4.50;99.90
23669;DHT22;12011;47.422;15.018;2023-04-01T04:14:19;4.50;99.90
23669;DHT22;12011;47.422;15.018;2023-04-01T04:16:50;4.40;99.90
23669;DHT22;12011;47.422;15.018;2023-04-01T04:19:31;4.30;99.90
23669;DHT22;12011;47.422;15.018;2023-04-01T04:22:07;4.30;99.90
23669;DHT22;12011;47.422;15.018;2023-04-01T04:24:53;4.30;99.90
23669;DHT22;12011;47.422;15.018;2023-04-01T04:27:29;4.30;99.90
23669;DHT22;12011;47.422;15.018;2023-04-01T04:30:13;4.40;99.90
23669;DHT22;12011;47.422;15.018;2023-04-01T04:32:47;4.40;99.90
23669;DHT22;12011;47.422;15.018;2023-04-01T04:35:25;4.40;99.90
23669;DHT22;12011;47.422;15.018;2023-04-01T04:38:03;4.40;99.90
23669;DHT22;12011;47.422;15.018;2023-04-01T04:40:44;4.30;99.90
23669;DHT22;12011;47.422;15.018;2023-04-01T04:43:18;4.20;99.90
23669;DHT22;12011;47.422;15.018;2023-04-01T04:45:52;4.10;99.90
23669;DHT22;12011;47.422;15.018;2023-04-01T04:48:21;4.20;99.90
23669;DHT22;12011;47.422;15.018;2023-04-01T04:50:59;4.20;99.90
23669;DHT22;12011;47.422;15.018;2023-04-01T04:53:29;4.30;99.90
23669;DHT22;12011;47.422;15.018;2023-04-01T04:56:26;4.30;99.90
23669;DHT22;12011;47.422;15.018;2023-04-01T04:59:22;4.30;99.90
23669;DHT22;12011;47.422;15.018;2023-04-01T05:02:32;4.40;99.90
23669;DHT22;12011;47.422;15.018;2023-04-01T05:05:09;4.40;99.90
23669;DHT22;12011;47.422;15.018;2023-04-01T05:08:21;4.50;99.90
23669;DHT22;12011;47.422;15.018;2023-04-01T05:11:13;4.50;99.90
23669;DHT22;12011;47.422;15.018;2023-04-01T05:16:31;4.70;99.90
23669;DHT22;12011;47.422;15.018;2023-04-01T05:19:16;4.70;99.90
23669;DHT22;12011;47.422;15.018;2023-04-01T05:21:46;4.80;99.90
23669;DHT22;12011;47.422;15.018;2023-04-01T05:24:22;4.90;99.90
23669;DHT22;12011;47.422;15.018;2023-04-01T05:26:52;4.90;99.90
23669;DHT22;12011;47.422;15.018;2023-04-01T05:29:22;5.00;99.90
23669;DHT22;12011;47.422;15.018;2023-04-01T05:31:58;5.10;99.90
23669;DHT22;12011;47.422;15.018;2023-04-01T05:34:31;5.20;99.90
23669;DHT22;12011;47.422;15.018;2023-04-01T05:37:00;5.50;99.90
23669;DHT22;12011;47.422;15.018;2023-04-01T05:39:30;5.60;99.90
23669;DHT22;12011;47.422;15.018;2023-04-01T05:42:00;5.60;99.90
23669;DHT22;12011;47.422;15.018;2023-04-01T05:44:32;5.70;99.90
23669;DHT22;12011;47.422;15.018;2023-04-01T05:47:04;5.80;99.90
23669;DHT22;12011;47.422;15.018;2023-04-01T05:49:37;5.90;99.90
23669;DHT22;12011;47.422;15.018;2023-04-01T05:52:07;6.10;99.90
23669;DHT22;12011;47.422;15.018;2023-04-01T05:54:37;6.30;99.90
23669;DHT22;12011;47.422;15.018;2023-04-01T05:57:07;6.50;99.90
23669;DHT22;12011;47.422;15.018;2023-04-01T05:59:36;6.60;99.90
23669;DHT22;12011;47.422;15.018;2023-04-01T06:02:07;6.70;99.90
23669;DHT22;12011;47.422;15.018;2023-04-01T06:04:41;6.70;99.90
23669;DHT22;12011;47.422;15.018;2023-04-01T06:07:11;6.80;99.90
23669;DHT22;12011;47.422;15.018;2023-04-01T06:09:45;6.90;99.90
23669;DHT22;12011;47.422;15.018;2023-04-01T06:12:35;7.30;99.90
23669;DHT22;12011;47.422;15.018;2023-04-01T06:15:34;7.30;99.90
23669;DHT22;12011;47.422;15.018;2023-04-01T06:18:30;7.40;99.90
23669;DHT22;12011;47.422;15.018;2023-04-01T06:27:50;8.10;99.90
23669;DHT22;12011;47.422;15.018;2023-04-01T06:30:38;8.50;99.90
23669;DHT22;12011;47.422;15.018;2023-04-01T06:33:35;8.60;99.90
23669;DHT22;12011;47.422;15.018;2023-04-01T06:36:41;8.90;99.90
23669;DHT22;12011;47.422;15.018;2023-04-01T06:39:42;9.60;99.90
23669;DHT22;12011;47.422;15.018;2023-04-01T06:42:40;10.00;99.90
23669;DHT22;12011;47.422;15.018;2023-04-01T06:45:47;9.80;98.10
23669;DHT22;12011;47.422;15.018;2023-04-01T06:49:04;9.50;99.90
23669;DHT22;12011;47.422;15.018;2023-04-01T06:52:22;9.10;99.90
23669;DHT22;12011;47.422;15.018;2023-04-01T06:55:27;9.40;99.90
23669;DHT22;12011;47.422;15.018;2023-04-01T06:58:36;9.30;99.90
23669;DHT22;12011;47.422;15.018;2023-04-01T07:01:17;9.40;99.90
23669;DHT22;12011;47.422;15.018;2023-04-01T07:03:53;9.20;99.90
23669;DHT22;12011;47.422;15.018;2023-04-01T07:06:30;9.50;99.90
23669;DHT22;12011;47.422;15.018;2023-04-01T07:09:10;9.60;99.90
23669;DHT22;12011;47.422;15.018;2023-04-01T07:12:10;9.20;99.90
23669;DHT22;12011;47.422;15.018;2023-04-01T07:15:13;9.10;99.90
23669;DHT22;12011;47.422;15.018;2023-04-01T07:17:52;9.10;99.90
23669;DHT22;12011;47.422;15.018;2023-04-01T07:20:29;9.40;99.90
23669;DHT22;12011;47.422;15.018;2023-04-01T07:23:05;9.70;99.90
23669;DHT22;12011;47.422;15.018;2023-04-01T07:26:00;10.40;99.90
23669;DHT22;12011;47.422;15.018;2023-04-01T07:28:54;11.20;94.60
23669;DHT22;12011;47.422;15.018;2023-04-01T07:32:03;11.50;94.10
23669;DHT22;12011;47.422;15.018;2023-04-01T07:34:55;12.50;87.40
23669;DHT22;12011;47.422;15.018;2023-04-01T07:37:42;13.40;69.10
23669;DHT22;12011;47.422;15.018;2023-04-01T07:40:25;14.20;71.50
23669;DHT22;12011;47.422;15.018;2023-04-01T07:43:31;14.50;59.40
23669;DHT22;12011;47.422;15.018;2023-04-01T07:46:53;15.90;55.00
23669;DHT22;12011;47.422;15.018;2023-04-01T07:49:36;15.60;52.10
23669;DHT22;12011;47.422;15.018;2023-04-01T07:52:19;14.40;58.50
23669;DHT22;12011;47.422;15.018;2023-04-01T07:55:08;14.30;56.50
23669;DHT22;12011;47.422;15.018;2023-04-01T07:57:51;14.20;73.20
23669;DHT22;12011;47.422;15.018;2023-04-01T08:00:31;13.70;66.40
23669;DHT22;12011;47.422;15.018;2023-04-01T08:03:33;13.30;57.40
23669;DHT22;12011;47.422;15.018;2023-04-01T08:06:15;12.90;58.00
23669;DHT22;12011;47.422;15.018;2023-04-01T08:08:59;12.70;63.90
23669;DHT22;12011;47.422;15.018;2023-04-01T08:11:46;12.30;66.10
23669;DHT22;12011;47.422;15.018;2023-04-01T08:14:52;12.50;73.60
23669;DHT22;12011;47.422;15.018;2023-04-01T08:17:45;12.60;70.10
23669;DHT22;12011;47.422;15.018;2023-04-01T08:20:31;12.60;67.60
23669;DHT22;12011;47.422;15.018;2023-04-01T08:23:10;12.60;72.30
23669;DHT22;12011;47.422;15.018;2023-04-01T08:25:50;12.70;78.50
23669;DHT22;12011;47.422;15.018;2023-04-01T08:28:32;12.10;69.90
23669;DHT22;12011;47.422;15.018;2023-04-01T08:31:10;12.20;72.70
23669;DHT22;12011;47.422;15.018;2023-04-01T08:33:47;11.60;71.80
23669;DHT22;12011;47.422;15.018;2023-04-01T08:36:22;11.70;82.40
23669;DHT22;12011;47.422;15.018;2023-04-01T08:39:13;11.50;81.70
23669;DHT22;12011;47.422;15.018;2023-04-01T08:42:18;11.50;80.80
23669;DHT22;12011;47.422;15.018;2023-04-01T08:45:29;11.70;86.40
23669;DHT22;12011;47.422;15.018;2023-04-01T08:48:32;11.70;80.50
23669;DHT22;12011;47.422;15.018;2023-04-01T08:54:46;11.30;76.50
23669;DHT22;12011;47.422;15.018;2023-04-01T08:58:06;11.50;78.00
23669;DHT22;12011;47.422;15.018;2023-04-01T09:01:26;11.30;80.80
23669;DHT22;12011;47.422;15.018;2023-04-01T09:04:24;11.20;86.60
23669;DHT22;12011;47.422;15.018;2023-04-01T09:07:13;11.40;83.10
23669;DHT22;12011;47.422;15.018;2023-04-01T09:10:19;11.20;77.60
23669;DHT22;12011;47.422;15.018;2023-04-01T09:13:25;10.90;87.30
23669;DHT22;12011;47.422;15.018;2023-04-01T09:16:21;11.00;84.70
23669;DHT22;12011;47.422;15.018;2023-04-01T09:19:21;11.00;76.70
23669;DHT22;12011;47.422;15.018;2023-04-01T09:22:35;11.20;82.20
23669;DHT22;12011;47.422;15.018;2023-04-01T09:28:28;11.00;78.20
23669;DHT22;12011;47.422;15.018;2023-04-01T09:31:26;11.10;86.90
23669;DHT22;12011;47.422;15.018;2023-04-01T09:34:57;11.20;80.00
23669;DHT22;12011;47.422;15.018;2023-04-01T09:37:53;11.20;77.30
23669;DHT22;12011;47.422;15.018;2023-04-01T09:40:36;11.30;86.40
23669;DHT22;12011;47.422;15.018;2023-04-01T09:43:27;11.50;90.20
23669;DHT22;12011;47.422;15.018;2023-04-01T09:46:25;11.40;88.40
23669;DHT22;12011;47.422;15.018;2023-04-01T09:49:23;11.50;76.20
23669;DHT22;12011;47.422;15.018;2023-04-01T09:52:29;11.40;84.10
23669;DHT22;12011;47.422;15.018;2023-04-01T09:59:01;11.70;87.00
23669;DHT22;12011;47.422;15.018;2023-04-01T10:06:21;11.70;83.40
23669;DHT22;12011;47.422;15.018;2023-04-01T10:09:36;11.80;84.10
23669;DHT22;12011;47.422;15.018;2023-04-01T10:13:01;11.90;76.40
23669;DHT22;12011;47.422;15.018;2023-04-01T10:22:58;12.30;76.70
23669;DHT22;12011;47.422;15.018;2023-04-01T10:29:42;12.90;65.00
23669;DHT22;12011;47.422;15.018;2023-04-01T10:33:08;12.90;63.20
23669;DHT22;12011;47.422;15.018;2023-04-01T10:43:55;13.20;68.30
23669;DHT22;12011;47.422;15.018;2023-04-01T10:53:37;13.10;59.40
23669;DHT22;12011;47.422;15.018;2023-04-01T10:56:40;13.10;67.80
23669;DHT22;12011;47.422;15.018;2023-04-01T11:00:18;13.00;64.40
23669;DHT22;12011;47.422;15.018;2023-04-01T11:03:51;12.80;59.00
23669;DHT22;12011;47.422;15.018;2023-04-01T11:07:20;12.90;77.40
23669;DHT22;12011;47.422;15.018;2023-04-01T11:14:07;12.50;67.60
23669;DHT22;12011;47.422;15.018;2023-04-01T11:17:36;12.30;69.50
23669;DHT22;12011;47.422;15.018;2023-04-01T11:21:02;12.30;66.60
23669;DHT22;12011;47.422;15.018;2023-04-01T11:34:14;12.40;84.20
23669;DHT22;12011;47.422;15.018;2023-04-01T11:37:06;12.50;84.20
23669;DHT22;12011;47.422;15.018;2023-04-01T11:40:18;12.80;76.00
23669;DHT22;12011;47.422;15.018;2023-04-01T11:43:24;12.80;68.00
23669;DHT22;12011;47.422;15.018;2023-04-01T11:46:27;12.70;92.60
23669;DHT22;12011;47.422;15.018;2023-04-01T11:49:29;12.40;71.60
23669;DHT22;12011;47.422;15.018;2023-04-01T11:52:59;12.40;87.20
23669;DHT22;12011;47.422;15.018;2023-04-01T11:55:55;12.60;76.00
23669;DHT22;12011;47.422;15.018;2023-04-01T11:58:56;12.70;70.80
23669;DHT22;12011;47.422;15.018;2023-04-01T12:01:54;12.40;70.50
23669;DHT22;12011;47.422;15.018;2023-04-01T12:04:59;12.30;73.80
23669;DHT22;12011;47.422;15.018;2023-04-01T12:08:09;12.20;88.60
23669;DHT22;12011;47.422;15.018;2023-04-01T12:10:58;12.50;68.20
23669;DHT22;12011;47.422;15.018;2023-04-01T12:13:42;12.70;84.10
23669;DHT22;12011;47.422;15.018;2023-04-01T12:16:41;13.00;75.00
23669;DHT22;12011;47.422;15.018;2023-04-01T12:19:27;12.70;66.20
23669;DHT22;12011;47.422;15.018;2023-04-01T12:22:23;13.10;75.40
23669;DHT22;12011;47.422;15.018;2023-04-01T12:25:33;13.20;75.30
23669;DHT22;12011;47.422;15.018;2023-04-01T12:28:29;13.10;63.30
23669;DHT22;12011;47.422;15.018;2023-04-01T12:31:19;13.40;64.10
23669;DHT22;12011;47.422;15.018;2023-04-01T12:34:33;13.40;53.80
23669;DHT22;12011;47.422;15.018;2023-04-01T12:37:26;13.10;57.20
23669;DHT22;12011;47.422;15.018;2023-04-01T12:40:36;13.20;53.10
23669;DHT22;12011;47.422;15.018;2023-04-01T12:46:41;13.60;51.10
23669;DHT22;12011;47.422;15.018;2023-04-01T12:49:47;14.10;53.10
23669;DHT22;12011;47.422;15.018;2023-04-01T12:52:37;14.00;47.50
23669;DHT22;12011;47.422;15.018;2023-04-01T12:55:38;14.40;45.90
23669;DHT22;12011;47.422;15.018;2023-04-01T12:58:28;14.50;50.60
23669;DHT22;12011;47.422;15.018;2023-04-01T13:01:30;14.70;49.30
23669;DHT22;12011;47.422;15.018;2023-04-01T13:07:53;14.80;47.70
23669;DHT22;12011;47.422;15.018;2023-04-01T13:11:00;14.70;49.80
23669;DHT22;12011;47.422;15.018;2023-04-01T13:16:56;14.40;43.60
23669;DHT22;12011;47.422;15.018;2023-04-01T13:19:36;14.10;49.00
23669;DHT22;12011;47.422;15.018;2023-04-01T13:22:17;14.20;46.50
23669;DHT22;12011;47.422;15.018;2023-04-01T13:24:55;14.20;47.50
23669;DHT22;12011;47.422;15.018;2023-04-01T13:27:38;14.20;45.10
23669;DHT22;12011;47.422;15.018;2023-04-01T13:30:24;14.30;44.80
23669;DHT22;12011;47.422;15.018;2023-04-01T13:33:04;14.30;45.20
23669;DHT22;12011;47.422;15.018;2023-04-01T13:35:48;14.60;50.80
23669;DHT22;12011;47.422;15.018;2023-04-01T13:38:48;14.70;50.70
23669;DHT22;12011;47.422;15.018;2023-04-01T13:41:47;14.80;50.00
23669;DHT22;12011;47.422;15.018;2023-04-01T13:44:34;14.80;45.80
23669;DHT22;12011;47.422;15.018;2023-04-01T13:57:43;15.30;43.10
23669;DHT22;12011;47.422;15.018;2023-04-01T14:00:46;15.40;43.80
23669;DHT22;12011;47.422;15.018;2023-04-01T14:03:32;15.40;45.90
23669;DHT22;12011;47.422;15.018;2023-04-01T14:06:34;15.40;44.10
23669;DHT22;12011;47.422;15.018;2023-04-01T14:12:30;15.40;42.80
23669;DHT22;12011;47.422;15.018;2023-04-01T14:15:25;15.40;41.70
23669;DHT22;12011;47.422;15.018;2023-04-01T14:18:33;15.20;39.50
23669;DHT22;12011;47.422;15.018;2023-04-01T14:21:33;15.40;40.90
23669;DHT22;12011;47.422;15.018;2023-04-01T14:24:32;15.60;41.00
23669;DHT22;12011;47.422;15.018;2023-04-01T14:27:34;15.80;41.60
23669;DHT22;12011;47.422;15.018;2023-04-01T14:33:37;15.60;39.00
23669;DHT22;12011;47.422;15.018;2023-04-01T14:36:41;15.60;41.50
23669;DHT22;12011;47.422;15.018;2023-04-01T14:39:34;15.40;46.00
23669;DHT22;12011;47.422;15.018;2023-04-01T14:42:45;14.90;44.30
23669;DHT22;12011;47.422;15.018;2023-04-01T14:48:38;14.50;45.80
23669;DHT22;12011;47.422;15.018;2023-04-01T14:51:23;14.30;47.50
23669;DHT22;12011;47.422;15.018;2023-04-01T14:54:08;13.90;52.70
23669;DHT22;12011;47.422;15.018;2023-04-01T14:56:50;13.70;49.30
23669;DHT22;12011;47.422;15.018;2023-04-01T14:59:28;13.70;54.30
23669;DHT22;12011;47.422;15.018;2023-04-01T15:02:11;13.50;49.10
23669;DHT22;12011;47.422;15.018;2023-04-01T15:04:56;13.50;51.00
23669;DHT22;12011;47.422;15.018;2023-04-01T15:07:50;13.40;52.10
23669;DHT22;12011;47.422;15.018;2023-04-01T15:10:59;13.60;54.00
23669;DHT22;12011;47.422;15.018;2023-04-01T15:14:17;14.00;52.90
23669;DHT22;12011;47.422;15.018;2023-04-01T15:17:03;13.60;53.40
23669;DHT22;12011;47.422;15.018;2023-04-01T15:19:57;13.10;52.30
23669;DHT22;12011;47.422;15.018;2023-04-01T15:22:54;12.60;52.50
23669;DHT22;12011;47.422;15.018;2023-04-01T15:25:51;12.40;54.50
23669;DHT22;12011;47.422;15.018;2023-04-01T15:29:01;12.00;55.00
23669;DHT22;12011;47.422;15.018;2023-04-01T15:31:57;12.20;53.70
23669;DHT22;12011;47.422;15.018;2023-04-01T15:34:37;12.20;59.10
23669;DHT22;12011;47.422;15.018;2023-04-01T15:37:27;12.40;58.70
23669;DHT22;12011;47.422;15.018;2023-04-01T15:40:17;12.30;58.00
23669;DHT22;12011;47.422;15.018;2023-04-01T15:43:06;12.00;56.40
23669;DHT22;12011;47.422;15.018;2023-04-01T15:45:57;12.10;63.90
23669;DHT22;12011;47.422;15.018;2023-04-01T15:48:46;11.70;69.30
23669;DHT22;12011;47.422;15.018;2023-04-01T15:51:36;11.40;62.50
23669;DHT22;12011;47.422;15.018;2023-04-01T15:57:37;11.20;75.20
23669;DHT22;12011;47.422;15.018;2023-04-01T16:00:25;11.10;74.10
23669;DHT22;12011;47.422;15.018;2023-04-01T16:03:21;11.00;72.10
23669;DHT22;12011;47.422;15.018;2023-04-01T16:09:25;10.80;79.60
23669;DHT22;12011;47.422;15.018;2023-04-01T16:12:16;11.00;92.20
23669;DHT22;12011;47.422;15.018;2023-04-01T16:14:59;11.10;78.70
23669;DHT22;12011;47.422;15.018;2023-04-01T16:18:07;11.10;73.20
23669;DHT22;12011;47.422;15.018;2023-04-01T16:20:51;11.10;75.10
23669;DHT22;12011;47.422;15.018;2023-04-01T16:23:30;11.00;74.60
23669;DHT22;12011;47.422;15.018;2023-04-01T16:26:09;10.90;73.60
23669;DHT22;12011;47.422;15.018;2023-04-01T16:28:53;10.70;79.80
23669;DHT22;12011;47.422;15.018;2023-04-01T16:31:34;10.40;82.90
23669;DHT22;12011;47.422;15.018;2023-04-01T16:34:14;10.20;88.20
23669;DHT22;12011;47.422;15.018;2023-04-01T16:36:51;9.90;91.80
23669;DHT22;12011;47.422;15.018;2023-04-01T16:39:35;9.70;92.60
23669;DHT22;12011;47.422;15.018;2023-04-01T16:42:19;9.60;93.40
23669;DHT22;12011;47.422;15.018;2023-04-01T16:45:08;9.50;94.80
23669;DHT22;12011;47.422;15.018;2023-04-01T16:47:51;9.50;96.20
23669;DHT22;12011;47.422;15.018;2023-04-01T16:50:26;9.40;95.90
23669;DHT22;12011;47.422;15.018;2023-04-01T16:53:02;9.50;94.80
23669;DHT22;12011;47.422;15.018;2023-04-01T16:55:48;9.60;95.00
23669;DHT22;12011;47.422;15.018;2023-04-01T16:58:27;9.70;94.90
23669;DHT22;12011;47.422;15.018;2023-04-01T17:01:05;9.60;94.20
23669;DHT22;12011;47.422;15.018;2023-04-01T17:03:48;9.50;96.10
23669;DHT22;12011;47.422;15.018;2023-04-01T17:06:31;9.50;94.30
23669;DHT22;12011;47.422;15.018;2023-04-01T17:09:29;9.40;93.60
23669;DHT22;12011;47.422;15.018;2023-04-01T17:12:17;9.30;95.60
23669;DHT22;12011;47.422;15.018;2023-04-01T17:15:03;9.10;95.10
23669;DHT22;12011;47.422;15.018;2023-04-01T17:17:51;9.10;94.00
23669;DHT22;12011;47.422;15.018;2023-04-01T17:20:39;9.00;95.70
23669;DHT22;12011;47.422;15.018;2023-04-01T17:23:20;8.80;96.40
23669;DHT22;12011;47.422;15.018;2023-04-01T17:26:16;8.70;97.30
23669;DHT22;12011;47.422;15.018;2023-04-01T17:29:02;8.50;98.40
23669;DHT22;12011;47.422;15.018;2023-04-01T17:31:46;8.40;99.20
23669;DHT22;12011;47.422;15.018;2023-04-01T17:34:39;8.40;99.20
23669;DHT22;12011;47.422;15.018;2023-04-01T17:37:29;8.40;99.90
23669;DHT22;12011;47.422;15.018;2023-04-01T17:40:28;8.20;99.90
23669;DHT22;12011;47.422;15.018;2023-04-01T17:43:16;8.00;99.90
23669;DHT22;12011;47.422;15.018;2023-04-01T17:45:56;8.00;99.90
23669;DHT22;12011;47.422;15.018;2023-04-01T17:48:41;7.90;99.90
23669;DHT22;12011;47.422;15.018;2023-04-01T17:51:32;7.90;99.90
23669;DHT22;12011;47.422;15.018;2023-04-01T17:54:20;7.80;99.90
23669;DHT22;12011;47.422;15.018;2023-04-01T17:57:09;8.00;99.90
23669;DHT22;12011;47.422;15.018;2023-04-01T18:00:03;8.00;99.90
23669;DHT22;12011;47.422;15.018;2023-04-01T18:02:59;8.00;99.90
23669;DHT22;12011;47.422;15.018;2023-04-01T18:05:58;8.00;99.90
23669;DHT22;12011;47.422;15.018;2023-04-01T18:09:01;8.10;99.90
23669;DHT22;12011;47.422;15.018;2023-04-01T18:11:59;8.20;99.90
23669;DHT22;12011;47.422;15.018;2023-04-01T18:15:07;8.20;99.90
23669;DHT22;12011;47.422;15.018;2023-04-01T18:18:07;8.20;99.90
23669;DHT22;12011;47.422;15.018;2023-04-01T18:20:57;8.10;99.90
23669;DHT22;12011;47.422;15.018;2023-04-01T18:23:39;7.90;99.90
23669;DHT22;12011;47.422;15.018;2023-04-01T18:26:22;7.80;99.90
23669;DHT22;12011;47.422;15.018;2023-04-01T18:29:01;7.70;99.90
23669;DHT22;12011;47.422;15.018;2023-04-01T18:31:42;7.70;99.90
23669;DHT22;12011;47.422;15.018;2023-04-01T18:34:20;7.70;99.90
23669;DHT22;12011;47.422;15.018;2023-04-01T18:37:22;7.70;99.90
23669;DHT22;12011;47.422;15.018;2023-04-01T18:40:12;7.70;99.90
23669;DHT22;12011;47.422;15.018;2023-04-01T18:43:01;7.60;99.90
23669;DHT22;12011;47.422;15.018;2023-04-01T18:45:52;6.40;99.90
23669;DHT22;12011;47.422;15.018;2023-04-01T18:48:51;7.50;99.90
23669;DHT22;12011;47.422;15.018;2023-04-01T18:51:39;7.40;99.90
23669;DHT22;12011;47.422;15.018;2023-04-01T18:54:23;7.30;99.90
23669;DHT22;12011;47.422;15.018;2023-04-01T18:57:12;7.30;99.90
23669;DHT22;12011;47.422;15.018;2023-04-01T18:59:53;7.20;99.90
23669;DHT22;12011;47.422;15.018;2023-04-01T19:02:40;7.20;99.90
23669;DHT22;12011;47.422;15.018;2023-04-01T19:05:20;6.50;99.90
23669;DHT22;12011;47.422;15.018;2023-04-01T19:08:25;7.20;99.90
23669;DHT22;12011;47.422;15.018;2023-04-01T19:14:22;7.10;99.90
23669;DHT22;12011;47.422;15.018;2023-04-01T19:17:05;7.00;99.90
23669;DHT22;12011;47.422;15.018;2023-04-01T19:19:54;7.00;99.90
23669;DHT22;12011;47.422;15.018;2023-04-01T19:22:42;6.90;99.90